Time;durP1;ratioP1;P1;durP2;ratioP2;P2;SDS_P1;SDS_P2;PMS_P1;PMS_P2;Temp;Humidity;BMP_temperature;BMP_pressure;BME280_temperature;BME280_humidity;BME280_pressure;Samples;Min_cycle;Max_cycle;Signal;HPM_P1;HPM_P2
2022/10/06 00:02:22;;;;;;;;;2.00;1.00;;;;;17.19;100.00;102435.69;4967361;28;45745;-70
2022/10/06 00:04:47;;;;;;;;;2.00;2.00;;;;;17.21;100.00;102433.66;4979042;28;45373;-71
2022/10/06 00:07:14;;;;;;;;;2.33;1.00;;;;;17.15;100.00;102441.66;4985095;28;45532;-70
2022/10/06 00:09:40;;;;;;;;;1.00;1.00;;;;;17.12;100.00;102448.28;4980453;28;45389;-70
2022/10/06 00:12:06;;;;;;;;;3.33;2.00;;;;;17.10;100.00;102451.19;4984388;28;46834;-70
2022/10/06 00:14:32;;;;;;;;;3.00;1.00;;;;;17.12;100.00;102449.16;4979106;28;45499;-70
2022/10/06 00:16:57;;;;;;;;;1.00;1.00;;;;;17.07;100.00;102454.25;4985250;28;45563;-70
2022/10/06 00:19:23;;;;;;;;;6.33;2.33;;;;;17.04;100.00;102460.03;4980516;28;45598;-70
2022/10/06 00:21:48;;;;;;;;;4.67;2.00;;;;;16.90;100.00;102468.75;4985076;28;46360;-70
2022/10/06 00:24:14;;;;;;;;;5.33;2.67;;;;;16.81;100.00;102472.34;4977821;28;45368;-71
2022/10/06 00:26:39;;;;;;;;;1.67;1.67;;;;;16.77;100.00;102470.94;4979593;28;45265;-69
2022/10/06 00:29:04;;;;;;;;;2.33;1.00;;;;;16.71;100.00;102479.75;4981457;28;45786;-70
2022/10/06 00:31:30;;;;;;;;;6.00;2.00;;;;;16.73;100.00;102485.94;4980502;28;46390;-69
2022/10/06 00:33:55;;;;;;;;;1.33;1.33;;;;;16.72;100.00;102496.09;4963213;28;45430;-69
2022/10/06 00:36:20;;;;;;;;;4.00;2.00;;;;;16.78;100.00;102494.63;4985048;28;45462;-69
2022/10/06 00:38:46;;;;;;;;;4.00;2.00;;;;;16.78;100.00;102493.75;4983149;28;45365;-69
2022/10/06 00:41:13;;;;;;;;;1.67;1.33;;;;;16.82;100.00;102498.81;4981750;28;45755;-69
2022/10/06 00:43:44;;;;;;;;;3.00;1.00;;;;;16.77;100.00;102503.88;4982537;28;45302;-69
2022/10/06 00:46:35;;;;;;;;;0.00;0.00;;;;;16.74;100.00;102504.16;4954538;28;45595;-70
2022/10/06 00:49:09;;;;;;;;;0.00;0.00;;;;;16.76;100.00;102498.53;4977015;28;45890;-69
2022/10/06 00:51:37;;;;;;;;;0.67;0.67;;;;;16.69;100.00;102510.09;4982612;28;46364;-70
2022/10/06 00:54:02;;;;;;;;;4.00;1.00;;;;;16.64;100.00;102508.81;4982544;28;45386;-68
2022/10/06 00:56:28;;;;;;;;;1.33;1.33;;;;;16.63;100.00;102507.06;4984584;28;45440;-71
2022/10/06 00:58:53;;;;;;;;;2.00;2.00;;;;;16.64;100.00;102509.66;4982958;28;45338;-69
2022/10/06 01:01:19;;;;;;;;;3.00;1.67;;;;;16.60;100.00;102504.56;4966854;28;46646;-68
2022/10/06 01:04:08;;;;;;;;;2.33;1.00;;;;;16.69;100.00;102531.19;4983014;28;45275;-69
2022/10/06 01:06:45;;;;;;;;;2.67;2.00;;;;;16.56;100.00;102522.34;4982832;28;45345;-69
2022/10/06 01:09:14;;;;;;;;;2.33;1.00;;;;;16.53;100.00;102520.75;4979933;28;45364;-69
2022/10/06 01:11:40;;;;;;;;;4.00;1.00;;;;;16.53;100.00;102522.63;4966107;28;48351;-68
2022/10/06 01:14:05;;;;;;;;;2.00;1.33;;;;;16.51;100.00;102525.50;4963496;28;45398;-69
2022/10/06 01:16:36;;;;;;;;;6.67;1.00;;;;;16.47;100.00;102526.81;4983337;28;45373;-69
2022/10/06 01:19:05;;;;;;;;;5.67;2.67;;;;;16.41;100.00;102532.00;4984520;28;45205;-69
2022/10/06 01:21:37;;;;;;;;;1.67;1.67;;;;;16.41;100.00;102530.13;4983317;28;45544;-70
2022/10/06 01:24:03;;;;;;;;;4.33;2.00;;;;;16.34;100.00;102531.72;4980338;28;45392;-69
2022/10/06 01:26:32;;;;;;;;;3.00;1.67;;;;;16.30;100.00;102533.88;4982046;28;45490;-68
2022/10/06 01:28:58;;;;;;;;;3.00;0.00;;;;;16.27;100.00;102539.66;4961139;28;45972;-70
2022/10/06 01:31:24;;;;;;;;;3.00;1.00;;;;;16.16;100.00;102541.63;4982965;28;46503;-70
2022/10/06 01:33:51;;;;;;;;;5.33;2.00;;;;;16.18;100.00;102540.50;4982022;28;45391;-70
2022/10/06 01:36:16;;;;;;;;;3.00;2.00;;;;;16.21;100.00;102556.69;4983102;28;45337;-70
2022/10/06 01:38:41;;;;;;;;;2.00;2.00;;;;;16.07;100.00;102559.78;4965001;28;45241;-70
2022/10/06 01:41:07;;;;;;;;;4.00;2.00;;;;;16.04;100.00;102560.09;4962999;28;46508;-70
2022/10/06 01:43:32;;;;;;;;;4.33;0.33;;;;;16.10;100.00;102554.03;4981872;28;45439;-71
2022/10/06 01:45:58;;;;;;;;;1.67;1.33;;;;;16.07;100.00;102562.53;4979970;28;46791;-70
2022/10/06 01:48:24;;;;;;;;;5.00;2.00;;;;;16.01;100.00;102560.34;4983945;28;45223;-71
2022/10/06 01:50:49;;;;;;;;;2.00;1.00;;;;;16.04;100.00;102554.59;4980100;28;45421;-70
2022/10/06 01:53:16;;;;;;;;;2.33;2.00;;;;;16.00;100.00;102544.91;4983690;28;45391;-70
2022/10/06 01:55:42;;;;;;;;;3.00;1.00;;;;;15.98;100.00;102554.31;4982038;28;45324;-70
2022/10/06 01:58:09;;;;;;;;;2.00;1.00;;;;;16.06;100.00;102557.22;4983894;28;45469;-70
2022/10/06 02:00:34;;;;;;;;;2.00;2.00;;;;;16.02;100.00;102558.47;4963090;28;47283;-70
2022/10/06 02:03:00;;;;;;;;;2.67;1.00;;;;;15.99;100.00;102556.91;4983525;28;45199;-70
2022/10/06 02:05:25;;;;;;;;;3.33;0.67;;;;;16.02;100.00;102561.22;4977372;28;45300;-70
2022/10/06 02:07:50;;;;;;;;;4.00;3.00;;;;;16.04;100.00;102565.56;4984125;28;45413;-70
2022/10/06 02:10:16;;;;;;;;;1.33;0.00;;;;;16.01;100.00;102570.47;4979314;28;45368;-70
2022/10/06 02:12:41;;;;;;;;;3.00;2.00;;;;;16.02;100.00;102577.69;4983331;28;45265;-70
2022/10/06 02:15:09;;;;;;;;;4.33;2.33;;;;;15.99;100.00;102576.09;4977304;28;45305;-70
2022/10/06 02:17:36;;;;;;;;;3.00;1.00;;;;;15.94;100.00;102575.63;4983994;28;45546;-70
2022/10/06 02:20:04;;;;;;;;;3.33;1.00;;;;;15.90;100.00;102585.16;4977047;28;47204;-70
2022/10/06 02:22:29;;;;;;;;;5.00;2.00;;;;;15.86;100.00;102590.03;4983287;28;45404;-70
2022/10/06 02:24:55;;;;;;;;;4.00;1.00;;;;;15.76;100.00;102594.63;4977143;28;45259;-70
2022/10/06 02:27:20;;;;;;;;;2.33;2.00;;;;;15.74;100.00;102593.00;4983630;28;45193;-70
2022/10/06 02:29:47;;;;;;;;;4.67;3.00;;;;;15.76;100.00;102596.50;4980532;28;45170;-70
2022/10/06 02:32:13;;;;;;;;;5.00;2.00;;;;;15.70;100.00;102583.34;4983263;28;45308;-70
2022/10/06 02:34:38;;;;;;;;;8.00;1.00;;;;;15.67;100.00;102594.56;4981317;28;45412;-71
2022/10/06 02:37:04;;;;;;;;;7.00;1.33;;;;;15.66;100.00;102588.22;4983010;28;45199;-70
2022/10/06 02:39:29;;;;;;;;;5.67;2.00;;;;;15.66;100.00;102592.81;4980391;28;45430;-70
2022/10/06 02:41:55;;;;;;;;;3.00;1.33;;;;;15.67;100.00;102608.25;4981533;28;45388;-70
2022/10/06 02:44:20;;;;;;;;;3.33;2.00;;;;;15.62;100.00;102613.28;4979487;28;45348;-70
2022/10/06 02:46:47;;;;;;;;;2.67;2.67;;;;;15.49;100.00;102605.22;4983618;28;45613;-70
2022/10/06 02:49:12;;;;;;;;;2.67;2.00;;;;;15.50;100.00;102605.09;4980218;28;46115;-70
2022/10/06 02:51:37;;;;;;;;;2.00;2.00;;;;;15.46;100.00;102603.66;4964215;28;45254;-70
2022/10/06 02:54:03;;;;;;;;;4.00;1.00;;;;;15.47;100.00;102615.47;4982952;28;45907;-70
2022/10/06 02:56:28;;;;;;;;;2.67;2.00;;;;;15.43;100.00;102612.13;4986846;28;45353;-70
2022/10/06 02:58:54;;;;;;;;;5.67;4.67;;;;;15.25;100.00;102619.22;4966774;28;46361;-70
2022/10/06 03:01:22;;;;;;;;;1.00;1.00;;;;;15.34;100.00;102615.66;4986341;28;45645;-70
2022/10/06 03:03:48;;;;;;;;;2.00;2.00;;;;;15.35;100.00;102622.00;4968015;28;45337;-71
2022/10/06 03:06:23;;;;;;;;;3.67;3.00;;;;;15.41;100.00;102621.50;4982150;28;45535;-70
2022/10/06 03:08:56;;;;;;;;;5.33;2.33;;;;;15.41;100.00;102627.84;4983416;28;46488;-70
2022/10/06 03:11:26;;;;;;;;;4.67;1.67;;;;;15.41;100.00;102633.34;4982659;28;45222;-70
2022/10/06 03:13:52;;;;;;;;;6.33;4.33;;;;;15.38;100.00;102633.59;4983869;28;45456;-70
2022/10/06 03:16:32;;;;;;;;;5.67;2.67;;;;;15.32;100.00;102634.13;4982836;28;45434;-70
2022/10/06 03:18:58;;;;;;;;;4.00;2.33;;;;;15.32;100.00;102633.25;4964352;28;47515;-70
2022/10/06 03:21:28;;;;;;;;;5.67;2.00;;;;;15.34;100.00;102625.78;4965396;28;45365;-70
2022/10/06 03:23:56;;;;;;;;;4.67;1.33;;;;;15.31;100.00;102637.88;4970866;28;45401;-70
2022/10/06 03:26:27;;;;;;;;;6.00;2.00;;;;;15.26;100.00;102640.16;4982852;28;45385;-68
2022/10/06 03:28:54;;;;;;;;;7.00;2.00;;;;;15.22;100.00;102637.78;4983813;28;45413;-70
2022/10/06 03:31:19;;;;;;;;;2.33;1.00;;;;;15.23;100.00;102639.53;4984224;28;45266;-70
2022/10/06 03:33:44;;;;;;;;;4.33;2.67;;;;;15.19;100.00;102647.16;4984169;28;45555;-70
2022/10/06 03:36:15;;;;;;;;;4.00;2.00;;;;;15.20;100.00;102654.34;4985513;28;45421;-70
2022/10/06 03:38:40;;;;;;;;;4.33;2.33;;;;;15.11;100.00;102649.69;4984040;28;45424;-70
2022/10/06 03:41:11;;;;;;;;;3.67;1.33;;;;;15.15;100.00;102653.88;4983508;28;45581;-70
2022/10/06 03:43:37;;;;;;;;;2.33;2.00;;;;;15.18;100.00;102656.38;4983975;28;45349;-70
2022/10/06 03:46:04;;;;;;;;;3.67;2.00;;;;;15.16;100.00;102672.03;4967794;28;45539;-70
2022/10/06 03:48:34;;;;;;;;;2.33;1.00;;;;;15.15;100.00;102667.56;4966330;28;47393;-70
2022/10/06 03:51:12;;;;;;;;;4.00;1.00;;;;;15.15;100.00;102678.53;4963149;28;45762;-70
2022/10/06 03:53:37;;;;;;;;;5.00;2.00;;;;;15.11;100.00;102666.09;4965814;28;45566;-71
2022/10/06 03:56:07;;;;;;;;;2.00;2.00;;;;;15.01;100.00;102673.34;4985865;28;46224;-68
2022/10/06 03:58:35;;;;;;;;;6.67;4.00;;;;;14.92;100.00;102674.13;4983576;28;45305;-70
2022/10/06 04:01:06;;;;;;;;;6.00;1.33;;;;;14.83;100.00;102691.34;4984602;28;45288;-70
2022/10/06 04:03:32;;;;;;;;;4.00;2.00;;;;;14.84;100.00;102704.88;4983937;28;45459;-70
2022/10/06 04:05:59;;;;;;;;;2.00;2.00;;;;;14.85;100.00;102692.06;4979974;28;45634;-70
2022/10/06 04:08:26;;;;;;;;;6.33;4.00;;;;;14.82;100.00;102700.56;4984344;28;45668;-70
2022/10/06 04:10:51;;;;;;;;;6.00;3.67;;;;;14.79;100.00;102702.53;4979275;28;45427;-70
2022/10/06 04:13:18;;;;;;;;;8.00;3.00;;;;;14.78;100.00;102706.25;4984948;28;45203;-70
2022/10/06 04:15:45;;;;;;;;;8.00;3.33;;;;;14.68;100.00;102705.28;4967382;28;45479;-70
2022/10/06 04:18:11;;;;;;;;;5.67;3.33;;;;;14.75;100.00;102708.41;4984785;28;45270;-70
2022/10/06 04:20:37;;;;;;;;;5.00;1.67;;;;;14.68;100.00;102698.97;4978443;28;45491;-70
2022/10/06 04:23:04;;;;;;;;;2.67;2.00;;;;;14.75;100.00;102705.66;4984875;28;45396;-70
2022/10/06 04:25:29;;;;;;;;;5.33;4.00;;;;;14.69;100.00;102707.03;4978691;28;45511;-71
2022/10/06 04:27:56;;;;;;;;;5.33;2.67;;;;;14.71;100.00;102709.63;4984465;28;45868;-70
2022/10/06 04:30:21;;;;;;;;;7.33;2.67;;;;;14.75;100.00;102716.63;4981355;28;45393;-70
2022/10/06 04:32:47;;;;;;;;;5.67;3.67;;;;;14.60;100.00;102702.34;4966628;28;45293;-70
2022/10/06 04:35:12;;;;;;;;;5.00;3.67;;;;;14.69;100.00;102717.97;4962189;28;45480;-70
2022/10/06 04:37:38;;;;;;;;;7.67;5.33;;;;;14.75;100.00;102713.88;4982266;28;45417;-70
2022/10/06 04:40:04;;;;;;;;;2.67;2.67;;;;;14.74;100.00;102715.75;4959667;28;45401;-70
2022/10/06 04:42:30;;;;;;;;;3.00;2.67;;;;;14.79;100.00;102718.94;4981059;28;45243;-70
2022/10/06 04:44:55;;;;;;;;;5.33;2.33;;;;;14.70;100.00;102725.19;4981333;28;45424;-70
2022/10/06 04:47:20;;;;;;;;;4.33;4.33;;;;;14.67;100.00;102728.19;4966041;28;47245;-70
2022/10/06 04:49:46;;;;;;;;;6.67;1.33;;;;;14.69;100.00;102728.03;4981779;28;45454;-70
2022/10/06 04:52:11;;;;;;;;;5.00;2.00;;;;;14.66;100.00;102733.78;4983288;28;45581;-70
2022/10/06 04:54:36;;;;;;;;;4.33;3.00;;;;;14.58;100.00;102720.75;4981872;28;45412;-69
2022/10/06 04:57:02;;;;;;;;;4.00;2.67;;;;;14.58;100.00;102742.63;4983563;28;45673;-69
2022/10/06 05:02:11;;;;;;;;;5.00;4.00;;;;;14.52;100.00;102732.19;4983398;28;45417;-70
2022/10/06 05:04:36;;;;;;;;;2.00;2.00;;;;;14.51;100.00;102748.72;4977743;28;45467;-70
2022/10/06 05:07:02;;;;;;;;;2.67;2.67;;;;;14.40;100.00;102738.63;4982616;28;46520;-70
2022/10/06 05:09:27;;;;;;;;;4.00;3.00;;;;;14.46;100.00;102746.38;4976741;28;45269;-71
2022/10/06 05:11:53;;;;;;;;;5.33;2.33;;;;;14.43;100.00;102743.88;4965413;28;45676;-70
2022/10/06 05:14:18;;;;;;;;;5.00;2.00;;;;;14.39;100.00;102743.25;4978673;28;45348;-70
2022/10/06 05:16:43;;;;;;;;;6.00;4.67;;;;;14.47;100.00;102739.00;4981871;28;46561;-69
2022/10/06 05:19:10;;;;;;;;;9.00;6.33;;;;;14.53;100.00;102750.34;4962138;28;45321;-70
2022/10/06 05:21:35;;;;;;;;;7.33;5.00;;;;;14.52;100.00;102747.72;4980559;28;45118;-71
2022/10/06 05:24:02;;;;;;;;;6.00;4.00;;;;;14.37;100.00;102749.81;4960932;28;45517;-71
2022/10/06 05:26:29;;;;;;;;;9.33;7.00;;;;;14.41;100.00;102745.84;4963839;28;46823;-69
2022/10/06 05:28:55;;;;;;;;;5.67;4.00;;;;;14.37;100.00;102749.81;4980687;28;45546;-70
2022/10/06 05:31:26;;;;;;;;;5.67;4.67;;;;;14.41;100.00;102752.19;4982976;28;45509;-70
2022/10/06 05:33:53;;;;;;;;;4.67;4.67;;;;;14.41;100.00;102756.78;4981287;28;45284;-69
2022/10/06 05:36:23;;;;;;;;;9.33;3.33;;;;;14.33;100.00;102753.78;4982332;28;46364;-70
2022/10/06 05:38:49;;;;;;;;;7.67;5.67;;;;;14.30;100.00;102754.03;4980907;28;45478;-70
2022/10/06 05:41:20;;;;;;;;;5.00;5.00;;;;;14.26;100.00;102752.53;4981470;28;45420;-72
2022/10/06 05:43:46;;;;;;;;;7.00;4.33;;;;;14.35;100.00;102762.72;4981190;28;45359;-69
2022/10/06 05:46:22;;;;;;;;;7.67;6.00;;;;;14.24;100.00;102760.00;4979813;28;45344;-69
2022/10/06 05:48:49;;;;;;;;;4.67;2.33;;;;;14.30;100.00;102773.19;4980800;28;45313;-71
2022/10/06 05:51:16;;;;;;;;;7.00;6.33;;;;;14.16;100.00;102767.94;4981006;28;45521;-70
2022/10/06 05:53:43;;;;;;;;;3.33;3.33;;;;;14.24;100.00;102770.94;4981178;28;45573;-71
2022/10/06 05:56:12;;;;;;;;;3.67;2.67;;;;;14.33;100.00;102781.13;4982381;28;46502;-69
2022/10/06 05:58:39;;;;;;;;;4.00;4.00;;;;;14.34;100.00;102778.28;4980360;28;45258;-71
2022/10/06 06:01:16;;;;;;;;;3.67;3.00;;;;;14.34;100.00;102770.06;4964375;28;45386;-71
2022/10/06 06:03:46;;;;;;;;;4.67;4.67;;;;;14.32;100.00;102776.63;4962800;28;45554;-69
2022/10/06 06:06:22;;;;;;;;;5.33;4.33;;;;;14.32;100.00;102791.19;4958829;28;47978;-69
2022/10/06 06:08:52;;;;;;;;;4.33;3.00;;;;;14.33;100.00;102789.31;4961747;28;45818;-69
2022/10/06 06:11:18;;;;;;;;;11.67;4.67;;;;;14.36;100.00;102789.09;4977925;28;45361;-71
2022/10/06 06:13:43;;;;;;;;;4.00;2.67;;;;;14.40;100.00;102782.41;4980887;28;45487;-70
2022/10/06 06:16:14;;;;;;;;;3.67;3.00;;;;;14.36;100.00;102789.97;4978152;28;46598;-70
2022/10/06 06:18:40;;;;;;;;;6.67;3.00;;;;;14.32;100.00;102784.84;4980405;28;45310;-69
2022/10/06 06:21:07;;;;;;;;;3.00;3.00;;;;;14.36;100.00;102783.63;4978250;28;45388;-70
2022/10/06 06:23:38;;;;;;;;;7.00;4.00;;;;;14.37;100.00;102791.72;4981138;28;45234;-73
2022/10/06 06:26:07;;;;;;;;;5.00;3.67;;;;;14.40;100.00;102798.81;4978234;28;45467;-70
2022/10/06 06:28:34;;;;;;;;;8.33;3.33;;;;;14.43;100.00;102804.03;4978504;28;45244;-71
2022/10/06 06:31:01;;;;;;;;;6.33;4.67;;;;;14.45;100.00;102806.66;4979096;28;45531;-71
2022/10/06 06:33:27;;;;;;;;;11.33;3.67;;;;;14.56;100.00;102809.38;4980883;28;45465;-68
2022/10/06 06:35:52;;;;;;;;;3.00;2.00;;;;;14.64;100.00;102807.78;4980039;28;46596;-71
2022/10/06 06:38:17;;;;;;;;;8.00;5.00;;;;;14.77;100.00;102813.97;4981486;28;45306;-70
2022/10/06 06:40:43;;;;;;;;;7.67;5.00;;;;;14.72;100.00;102816.22;4960262;28;45334;-70
2022/10/06 06:43:11;;;;;;;;;5.33;4.00;;;;;14.86;100.00;102816.97;4982244;28;45306;-71
2022/10/06 06:45:36;;;;;;;;;10.67;4.00;;;;;14.84;100.00;102819.81;4976844;28;45414;-69
2022/10/06 06:48:03;;;;;;;;;8.33;4.67;;;;;14.79;100.00;102817.47;4981603;28;45311;-69
2022/10/06 06:50:28;;;;;;;;;6.67;1.33;;;;;14.83;100.00;102817.22;4959294;28;45238;-71
2022/10/06 06:52:53;;;;;;;;;13.00;7.00;;;;;14.84;100.00;102829.88;4963959;28;45155;-70
2022/10/06 06:55:19;;;;;;;;;7.00;5.67;;;;;14.80;100.00;102841.09;4979645;28;45430;-70
2022/10/06 06:57:45;;;;;;;;;9.33;6.00;;;;;14.88;100.00;102836.88;4981656;28;45175;-70
2022/10/06 07:00:11;;;;;;;;;12.33;9.00;;;;;15.06;100.00;102838.06;4976758;28;45484;-70
2022/10/06 07:02:37;;;;;;;;;12.00;9.67;;;;;15.15;100.00;102849.16;4977851;28;45349;-71
2022/10/06 07:05:02;;;;;;;;;8.00;6.67;;;;;15.10;100.00;102848.66;4978561;28;45428;-70
2022/10/06 07:07:28;;;;;;;;;10.33;9.00;;;;;15.29;100.00;102856.22;4980922;28;45297;-71
2022/10/06 07:09:53;;;;;;;;;10.67;9.00;;;;;15.29;100.00;102855.34;4975414;28;45440;-71
2022/10/06 07:12:18;;;;;;;;;10.00;9.00;;;;;15.40;100.00;102855.34;4963421;28;45460;-71
2022/10/06 07:25:39;;;;;;;;;33.67;29.67;;;;;15.54;100.00;102869.63;4973956;28;45711;-69
2022/10/06 07:28:06;;;;;;;;;16.00;11.67;;;;;15.73;100.00;102873.53;4980649;28;45207;-70
2022/10/06 07:30:31;;;;;;;;;10.00;8.67;;;;;16.01;100.00;102883.00;4979707;28;45347;-71
2022/10/06 07:32:57;;;;;;;;;17.67;13.00;;;;;16.20;100.00;102878.56;4981806;28;45264;-69
2022/10/06 07:35:23;;;;;;;;;5.00;4.67;;;;;16.43;100.00;102883.91;4979658;28;46269;-71
2022/10/06 07:37:50;;;;;;;;;24.33;20.67;;;;;16.59;100.00;102887.91;4957294;28;45370;-70
2022/10/06 07:40:16;;;;;;;;;10.00;10.00;;;;;16.73;100.00;102889.44;4981644;28;45248;-71
2022/10/06 07:42:47;;;;;;;;;21.67;20.33;;;;;16.79;99.84;102894.41;4984132;28;45432;-71
2022/10/06 07:48:02;;;;;;;;;21.33;15.33;;;;;17.27;93.84;102893.72;4984193;28;45294;-71
2022/10/06 07:50:28;;;;;;;;;10.00;7.00;;;;;17.47;93.01;102898.25;4962306;28;45409;-71
2022/10/06 07:52:53;;;;;;;;;10.00;9.00;;;;;17.68;93.41;102901.78;4967249;28;45544;-71
2022/10/06 07:55:18;;;;;;;;;14.00;14.00;;;;;17.72;90.55;102888.66;4982878;28;45436;-71
2022/10/06 07:57:45;;;;;;;;;7.00;5.00;;;;;17.80;89.91;102906.19;4983892;28;45344;-69
2022/10/06 08:00:14;;;;;;;;;8.67;5.67;;;;;17.86;89.68;102907.47;4958284;28;45410;-70
2022/10/06 08:02:40;;;;;;;;;8.00;6.67;;;;;17.97;88.33;102907.31;4982285;28;45347;-70
2022/10/06 08:05:07;;;;;;;;;11.00;8.33;;;;;18.04;86.22;102915.88;4980456;28;46553;-71
2022/10/06 08:07:32;;;;;;;;;26.33;25.00;;;;;18.09;87.30;102916.31;4965221;28;45214;-71
2022/10/06 08:09:58;;;;;;;;;14.67;12.33;;;;;18.23;86.60;102919.50;4977884;28;45313;-71
2022/10/06 08:12:32;;;;;;;;;11.67;7.00;;;;;18.20;84.49;102918.91;4984751;28;45253;-71
2022/10/06 08:15:02;;;;;;;;;8.00;5.00;;;;;18.61;84.48;102912.22;4977775;28;45436;-71
2022/10/06 08:17:31;;;;;;;;;7.00;7.00;;;;;19.20;84.44;102922.91;4983773;28;45320;-71
2022/10/06 08:19:56;;;;;;;;;7.67;4.33;;;;;19.59;82.69;102922.69;4977593;28;45411;-71
2022/10/06 08:22:26;;;;;;;;;7.33;5.33;;;;;19.75;77.27;102921.00;4967366;28;45568;-71
2022/10/06 08:24:53;;;;;;;;;5.67;4.00;;;;;19.78;78.27;102922.59;4977795;28;46267;-70
2022/10/06 08:27:18;;;;;;;;;8.67;6.67;;;;;19.79;75.65;102921.56;4983612;28;45386;-70
2022/10/06 08:29:44;;;;;;;;;9.67;7.67;;;;;19.81;76.80;102925.88;4982538;28;45448;-70
2022/10/06 08:32:09;;;;;;;;;14.00;8.00;;;;;19.87;75.11;102916.09;4984833;28;45463;-70
2022/10/06 08:34:35;;;;;;;;;11.33;7.67;;;;;20.20;76.29;102920.06;4963291;28;47145;-70
2022/10/06 08:37:02;;;;;;;;;8.00;7.67;;;;;20.43;73.73;102928.75;4984061;28;45221;-70
2022/10/06 08:39:30;;;;;;;;;7.33;6.00;;;;;20.56;72.16;102927.31;4982013;28;45416;-70
2022/10/06 08:41:56;;;;;;;;;7.00;5.33;;;;;20.24;72.57;102937.19;4978919;28;45446;-71
2022/10/06 08:44:29;;;;;;;;;12.00;4.67;;;;;20.32;73.91;102934.47;4978500;28;45405;-70
2022/10/06 08:46:59;;;;;;;;;6.33;6.33;;;;;20.75;71.52;102937.25;4975295;28;45425;-71
2022/10/06 08:49:32;;;;;;;;;8.33;5.67;;;;;20.88;71.93;102932.19;4963786;28;45484;-71
2022/10/06 08:52:24;;;;;;;;;15.00;11.00;;;;;20.82;70.28;102948.56;4974152;28;45342;-71
2022/10/06 08:55:11;;;;;;;;;14.00;7.33;;;;;20.90;69.57;102949.47;4980690;28;45741;-71
2022/10/06 08:58:04;;;;;;;;;10.00;8.33;;;;;20.62;71.21;102952.53;4983682;28;45411;-70
2022/10/06 09:00:32;;;;;;;;;4.67;3.00;;;;;20.41;71.85;102951.00;4979239;28;45239;-72
2022/10/06 09:02:58;;;;;;;;;6.00;5.00;;;;;20.71;70.68;102957.09;4980416;28;45393;-72
2022/10/06 09:05:27;;;;;;;;;10.00;10.00;;;;;20.30;72.23;102965.03;4980543;28;45913;-72
2022/10/06 09:08:15;;;;;;;;;12.33;8.33;;;;;20.47;72.49;102955.88;4965740;28;45313;-70
2022/10/06 09:11:00;;;;;;;;;3.00;3.00;;;;;20.75;70.27;102959.38;4977226;28;45268;-69
2022/10/06 09:13:32;;;;;;;;;5.00;5.00;;;;;20.76;69.40;102949.19;4964685;28;45761;-71
2022/10/06 09:16:06;;;;;;;;;6.00;4.00;;;;;21.13;68.80;102959.97;4956800;28;47930;-71
2022/10/06 09:18:37;;;;;;;;;5.33;4.00;;;;;20.85;69.37;102954.63;4980532;28;45240;-71
2022/10/06 09:21:10;;;;;;;;;5.67;3.33;;;;;21.11;68.80;102948.22;4978378;28;45333;-71
2022/10/06 09:23:49;;;;;;;;;6.33;6.00;;;;;21.41;69.45;102957.88;4964143;28;45344;-72
2022/10/06 09:26:16;;;;;;;;;11.67;11.00;;;;;21.51;67.54;102961.41;4980923;28;45388;-70
2022/10/06 09:28:45;;;;;;;;;6.33;3.67;;;;;21.59;66.41;102959.53;4981224;28;45427;-72
2022/10/06 09:31:27;;;;;;;;;9.67;5.00;;;;;21.38;69.12;102961.00;4976410;28;45285;-71
2022/10/06 09:34:07;;;;;;;;;7.67;5.33;;;;;21.44;67.36;102963.97;4980790;28;45236;-71
2022/10/06 09:36:58;;;;;;;;;13.67;9.67;;;;;21.95;66.60;102970.34;4981138;28;45588;-71
2022/10/06 09:39:25;;;;;;;;;10.33;5.00;;;;;22.20;66.72;102963.88;4961935;28;45610;-71
2022/10/06 09:41:50;;;;;;;;;10.00;8.33;;;;;21.82;65.34;102964.44;4982358;28;45328;-71
2022/10/06 09:44:26;;;;;;;;;9.33;5.00;;;;;21.33;66.55;102959.56;4980916;28;45427;-71
2022/10/06 09:46:52;;;;;;;;;5.67;3.33;;;;;21.32;68.46;102955.09;4982630;28;45435;-71
2022/10/06 09:49:21;;;;;;;;;9.00;7.33;;;;;21.32;67.94;102962.53;4981078;28;45370;-71
2022/10/06 09:52:17;;;;;;;;;5.00;3.67;;;;;21.46;66.93;102963.81;4982846;28;45369;-71
2022/10/06 09:54:43;;;;;;;;;6.67;3.67;;;;;21.29;67.03;102957.31;4980013;28;45269;-72
2022/10/06 09:57:25;;;;;;;;;11.33;8.33;;;;;21.39;67.71;102954.44;4964945;28;46766;-71
2022/10/06 09:59:51;;;;;;;;;5.00;5.00;;;;;20.85;68.56;102950.97;4980985;28;45314;-71
2022/10/06 10:02:26;;;;;;;;;3.33;3.00;;;;;20.30;70.68;102953.13;4982606;28;45234;-71
2022/10/06 10:04:54;;;;;;;;;6.67;3.33;;;;;20.54;70.77;102962.50;4979800;28;45502;-71
2022/10/06 10:07:26;;;;;;;;;10.33;4.00;;;;;20.80;70.43;102951.47;4982118;28;47201;-71
2022/10/06 10:09:53;;;;;;;;;2.33;2.33;;;;;21.04;69.37;102952.69;4976222;28;45365;-71
2022/10/06 10:12:27;;;;;;;;;5.67;4.67;;;;;20.98;68.93;102948.66;4981750;28;45249;-71
2022/10/06 10:15:02;;;;;;;;;9.00;5.00;;;;;20.79;70.26;102958.03;4976708;28;45408;-71
2022/10/06 10:17:28;;;;;;;;;7.67;5.00;;;;;20.86;69.65;102953.59;4982451;28;45441;-71
2022/10/06 10:19:54;;;;;;;;;5.33;4.00;;;;;20.92;69.32;102955.69;4976099;28;45438;-71
2022/10/06 10:22:29;;;;;;;;;5.67;2.67;;;;;20.85;69.47;102943.56;4964919;28;45421;-71
2022/10/06 10:25:32;;;;;;;;;6.00;3.33;;;;;20.77;69.30;102954.56;4958377;28;45473;-71
2022/10/06 10:27:57;;;;;;;;;10.00;4.00;;;;;20.67;69.45;102956.56;4981748;28;45381;-71
2022/10/06 10:30:23;;;;;;;;;5.00;5.00;;;;;20.29;71.58;102945.84;4959783;28;45261;-71
2022/10/06 10:32:57;;;;;;;;;8.67;5.33;;;;;20.54;69.56;102953.34;4981574;28;45274;-71
2022/10/06 10:35:30;;;;;;;;;6.33;4.67;;;;;20.42;66.28;102946.34;4959726;28;45442;-71
2022/10/06 10:38:17;;;;;;;;;10.33;4.33;;;;;20.43;69.07;102948.09;4981881;28;45554;-70
2022/10/06 10:40:47;;;;;;;;;4.67;1.33;;;;;20.73;67.94;102953.16;4980025;28;45454;-71
2022/10/06 10:43:28;;;;;;;;;9.33;6.33;;;;;20.66;68.65;102938.25;4965117;28;45347;-70
2022/10/06 10:46:12;;;;;;;;;4.67;3.67;;;;;20.70;69.38;102933.25;4980434;28;45302;-71
2022/10/06 10:48:48;;;;;;;;;8.00;3.00;;;;;20.67;67.82;102939.13;4981407;28;45539;-71
2022/10/06 10:51:29;;;;;;;;;2.67;2.00;;;;;20.60;64.14;102936.97;4982105;28;45271;-70
2022/10/06 10:54:03;;;;;;;;;4.67;3.00;;;;;20.65;64.41;102931.00;4980724;28;45321;-71
2022/10/06 10:56:31;;;;;;;;;2.00;2.00;;;;;20.76;65.83;102941.75;4981646;28;45479;-70
2022/10/06 10:59:09;;;;;;;;;3.67;2.00;;;;;20.91;65.37;102942.91;4963563;28;47170;-70
2022/10/06 11:01:44;;;;;;;;;5.00;4.00;;;;;20.70;65.15;102933.25;4963153;28;45259;-70
2022/10/06 11:04:11;;;;;;;;;4.33;3.00;;;;;20.40;65.13;102938.22;4961874;28;45199;-71
2022/10/06 11:06:57;;;;;;;;;7.67;2.67;;;;;20.56;66.14;102943.00;4982339;28;45472;-70
2022/10/06 11:09:50;;;;;;;;;4.00;4.00;;;;;20.63;65.40;102940.47;4976873;28;46570;-71
2022/10/06 11:12:36;;;;;;;;;3.67;3.33;;;;;20.85;66.37;102926.13;4980572;28;45313;-71
2022/10/06 11:15:04;;;;;;;;;5.67;3.00;;;;;21.11;64.89;102934.41;4977014;28;45605;-70
2022/10/06 11:17:38;;;;;;;;;3.67;3.67;;;;;21.29;63.16;102932.44;4985208;28;45546;-71
2022/10/06 11:20:45;;;;;;;;;6.00;2.00;;;;;21.27;62.01;102927.06;4978216;28;46423;-71
2022/10/06 11:23:21;;;;;;;;;1.67;1.67;;;;;20.85;62.79;102923.34;4924322;28;45433;-71
2022/10/06 11:25:55;;;;;;;;;2.33;2.33;;;;;21.03;61.81;102926.06;4924345;28;45377;-72
2022/10/06 11:28:38;;;;;;;;;3.00;1.33;;;;;20.89;60.26;102917.31;4960809;28;45679;-71
2022/10/06 11:31:33;;;;;;;;;4.00;4.00;;;;;21.07;59.98;102919.16;4983881;28;45422;-70
2022/10/06 11:34:03;;;;;;;;;3.67;2.00;;;;;21.02;59.72;102921.56;4978574;28;45713;-71
2022/10/06 11:36:40;;;;;;;;;2.33;2.33;;;;;21.09;57.59;102922.63;4984973;28;45325;-70
2022/10/06 11:39:13;;;;;;;;;3.00;1.00;;;;;20.89;58.87;102917.31;4966421;28;45356;-71
2022/10/06 11:42:01;;;;;;;;;5.67;1.33;;;;;20.73;57.86;102921.91;4976258;28;45488;-71
2022/10/06 11:44:36;;;;;;;;;2.67;1.67;;;;;20.91;59.71;102917.16;4964224;28;45426;-71
2022/10/06 11:47:09;;;;;;;;;5.67;1.00;;;;;20.95;56.58;102907.53;4977652;28;45482;-71